KILN

Wilmington Airpark

Wilmington, Ohio, USA
METAR KILN 170554Z AUTO 21008KT 10SM CLR 02/M02 A3017 RMK AO2 SLP235 T00171017 10039 20006 51014
Observed Flight Rules
Dec-17 @ 05:54 UTC (24 minutes ago) Visual Flight Rules
Wind Visibility Clouds
210° at 8 knots 10 miles
  • Clear skies
Temperatures Readings
Current 2°C / 36°F
Dewpoint -2°C / 28°F
Humidity 75%
Altimeter 30.17" Hg
Pressure 1023.5 hPa
Elevation 322
METAR KILN 170554Z AUTO 21008KT 10SM CLR 02/M02 A3017 RMK AO2 SLP235 T00171017 10039 20006 51014
Observed Flight Rules
Dec-17 @ 05:54 UTC
(24 minutes ago)
VFR
Wind Visibility
210° at 8 knots 10 miles
Clouds
  • Clear skies
Temperature Dewpoint
2°C / 36°F -2°C / 28°F
Humidity Altimeter Pressure
75% 30.17" Hg 1023.5 hPa